sensor_id;sensor_type;location;lat;lon;timestamp;pressure;altitude;pressure_sealevel;temperature;humidity
59106;BME280;44891;50.204;8.132;2023-02-19T00:02:51;98537.34;;;9.37;93.97
59106;BME280;44891;50.204;8.132;2023-02-19T00:06:56;98540.44;;;9.34;93.91
59106;BME280;44891;50.204;8.132;2023-02-19T00:10:59;98544.50;;;9.30;94.08
59106;BME280;44891;50.204;8.132;2023-02-19T00:15:01;98538.38;;;9.36;93.72
59106;BME280;44891;50.204;8.132;2023-02-19T00:19:03;98544.06;;;9.33;93.93
59106;BME280;44891;50.204;8.132;2023-02-19T00:23:07;98556.59;;;9.31;94.26
59106;BME280;44891;50.204;8.132;2023-02-19T00:27:09;98545.91;;;9.32;93.86
59106;BME280;44891;50.204;8.132;2023-02-19T00:31:13;98539.84;;;9.32;94.15
59106;BME280;44891;50.204;8.132;2023-02-19T00:35:15;98525.28;;;9.36;93.65
59106;BME280;44891;50.204;8.132;2023-02-19T00:39:19;98499.94;;;9.18;93.55
59106;BME280;44891;50.204;8.132;2023-02-19T00:43:21;98530.88;;;9.39;93.59
59106;BME280;44891;50.204;8.132;2023-02-19T00:47:22;98531.13;;;9.38;93.32
59106;BME280;44891;50.204;8.132;2023-02-19T00:51:25;98531.91;;;9.38;93.63
59106;BME280;44891;50.204;8.132;2023-02-19T00:55:30;98521.06;;;9.35;93.58
59106;BME280;44891;50.204;8.132;2023-02-19T00:59:32;98521.44;;;9.38;93.57
59106;BME280;44891;50.204;8.132;2023-02-19T01:03:36;98525.03;;;9.37;93.76
59106;BME280;44891;50.204;8.132;2023-02-19T01:07:38;98520.41;;;9.39;94.56
59106;BME280;44891;50.204;8.132;2023-02-19T01:11:43;98530.75;;;9.34;95.17
59106;BME280;44891;50.204;8.132;2023-02-19T01:15:45;98514.44;;;9.32;94.64
59106;BME280;44891;50.204;8.132;2023-02-19T01:19:46;98519.00;;;9.37;95.00
59106;BME280;44891;50.204;8.132;2023-02-19T01:23:49;98527.31;;;9.34;94.28
59106;BME280;44891;50.204;8.132;2023-02-19T01:27:52;98514.22;;;9.34;94.36
59106;BME280;44891;50.204;8.132;2023-02-19T01:31:56;98515.56;;;9.24;96.15
59106;BME280;44891;50.204;8.132;2023-02-19T01:35:58;98508.94;;;9.22;96.47
59106;BME280;44891;50.204;8.132;2023-02-19T01:40:00;98505.50;;;9.21;96.57
59106;BME280;44891;50.204;8.132;2023-02-19T01:44:04;98495.91;;;9.15;97.62
59106;BME280;44891;50.204;8.132;2023-02-19T01:48:08;98501.94;;;9.16;97.48
59106;BME280;44891;50.204;8.132;2023-02-19T01:52:13;98484.88;;;9.13;97.72
59106;BME280;44891;50.204;8.132;2023-02-19T01:56:17;98490.25;;;9.18;97.04
59106;BME280;44891;50.204;8.132;2023-02-19T02:00:21;98500.13;;;9.16;96.59
59106;BME280;44891;50.204;8.132;2023-02-19T02:04:27;98488.06;;;9.15;96.62
59106;BME280;44891;50.204;8.132;2023-02-19T02:08:30;98482.59;;;9.17;97.14
59106;BME280;44891;50.204;8.132;2023-02-19T02:12:55;98478.81;;;9.13;97.31
59106;BME280;44891;50.204;8.132;2023-02-19T02:17:00;98466.75;;;9.12;97.84
59106;BME280;44891;50.204;8.132;2023-02-19T02:21:28;98463.34;;;9.11;97.04
59106;BME280;44891;50.204;8.132;2023-02-19T02:30:01;98466.75;;;9.12;96.97
59106;BME280;44891;50.204;8.132;2023-02-19T02:34:06;98458.53;;;9.08;96.65
59106;BME280;44891;50.204;8.132;2023-02-19T02:38:13;98464.00;;;9.07;96.92
59106;BME280;44891;50.204;8.132;2023-02-19T02:42:16;98463.41;;;9.05;96.98
59106;BME280;44891;50.204;8.132;2023-02-19T02:46:40;98466.69;;;9.00;97.00
59106;BME280;44891;50.204;8.132;2023-02-19T02:50:45;98454.25;;;8.95;98.07
59106;BME280;44891;50.204;8.132;2023-02-19T02:54:48;98458.25;;;8.98;97.59
59106;BME280;44891;50.204;8.132;2023-02-19T02:59:07;98460.44;;;9.01;98.20
59106;BME280;44891;50.204;8.132;2023-02-19T03:03:12;98463.06;;;9.01;98.09
59106;BME280;44891;50.204;8.132;2023-02-19T03:07:16;98451.31;;;9.04;98.05
59106;BME280;44891;50.204;8.132;2023-02-19T03:11:18;98446.75;;;8.99;98.59
59106;BME280;44891;50.204;8.132;2023-02-19T03:15:41;98445.16;;;8.98;98.39
59106;BME280;44891;50.204;8.132;2023-02-19T03:20:19;98448.00;;;8.96;98.95
59106;BME280;44891;50.204;8.132;2023-02-19T03:24:22;98453.91;;;8.92;99.71
59106;BME280;44891;50.204;8.132;2023-02-19T03:28:43;98458.69;;;8.95;100.00
59106;BME280;44891;50.204;8.132;2023-02-19T03:33:05;98459.00;;;8.87;100.00
59106;BME280;44891;50.204;8.132;2023-02-19T03:37:12;98473.13;;;8.86;100.00
59106;BME280;44891;50.204;8.132;2023-02-19T03:41:17;98456.81;;;8.84;100.00
59106;BME280;44891;50.204;8.132;2023-02-19T03:45:28;98464.91;;;8.82;100.00
59106;BME280;44891;50.204;8.132;2023-02-19T03:49:34;98451.81;;;8.82;100.00
59106;BME280;44891;50.204;8.132;2023-02-19T03:53:46;98461.47;;;8.82;100.00
59106;BME280;44891;50.204;8.132;2023-02-19T03:57:50;98462.94;;;8.78;100.00
59106;BME280;44891;50.204;8.132;2023-02-19T04:01:55;98448.84;;;8.79;100.00
59106;BME280;44891;50.204;8.132;2023-02-19T04:06:00;98435.47;;;8.68;100.00
59106;BME280;44891;50.204;8.132;2023-02-19T04:10:04;98442.44;;;8.75;100.00
59106;BME280;44891;50.204;8.132;2023-02-19T04:14:14;98434.28;;;8.64;100.00
59106;BME280;44891;50.204;8.132;2023-02-19T04:18:17;98444.56;;;8.66;99.45
59106;BME280;44891;50.204;8.132;2023-02-19T04:22:22;98446.22;;;8.60;99.81
59106;BME280;44891;50.204;8.132;2023-02-19T04:26:25;98452.75;;;8.51;100.00
59106;BME280;44891;50.204;8.132;2023-02-19T04:30:27;98458.00;;;8.51;100.00
59106;BME280;44891;50.204;8.132;2023-02-19T04:34:29;98459.03;;;8.50;100.00
59106;BME280;44891;50.204;8.132;2023-02-19T04:38:31;98467.47;;;8.52;100.00
59106;BME280;44891;50.204;8.132;2023-02-19T04:42:34;98464.19;;;8.57;99.60
59106;BME280;44891;50.204;8.132;2023-02-19T04:46:36;98470.66;;;8.54;100.00
59106;BME280;44891;50.204;8.132;2023-02-19T04:50:38;98484.47;;;8.61;99.58
59106;BME280;44891;50.204;8.132;2023-02-19T04:54:40;98494.31;;;8.66;99.81
59106;BME280;44891;50.204;8.132;2023-02-19T04:58:43;98488.28;;;8.65;100.00
59106;BME280;44891;50.204;8.132;2023-02-19T05:02:45;98495.19;;;8.60;100.00
59106;BME280;44891;50.204;8.132;2023-02-19T05:06:47;98502.34;;;8.64;100.00
59106;BME280;44891;50.204;8.132;2023-02-19T05:10:49;98496.91;;;8.66;100.00
59106;BME280;44891;50.204;8.132;2023-02-19T05:14:52;98504.97;;;8.64;100.00
59106;BME280;44891;50.204;8.132;2023-02-19T05:18:54;98515.25;;;8.66;100.00
59106;BME280;44891;50.204;8.132;2023-02-19T05:22:56;98519.75;;;8.59;100.00
59106;BME280;44891;50.204;8.132;2023-02-19T05:26:58;98514.88;;;8.62;99.36
59106;BME280;44891;50.204;8.132;2023-02-19T05:31:04;98519.16;;;8.57;100.00
59106;BME280;44891;50.204;8.132;2023-02-19T05:35:06;98514.28;;;8.60;100.00
59106;BME280;44891;50.204;8.132;2023-02-19T05:39:09;98529.94;;;8.67;99.78
59106;BME280;44891;50.204;8.132;2023-02-19T05:43:12;98534.16;;;8.68;99.93
59106;BME280;44891;50.204;8.132;2023-02-19T05:47:15;98539.16;;;8.69;100.00
59106;BME280;44891;50.204;8.132;2023-02-19T05:51:18;98536.38;;;8.64;100.00
59106;BME280;44891;50.204;8.132;2023-02-19T05:55:21;98534.44;;;8.60;100.00
59106;BME280;44891;50.204;8.132;2023-02-19T05:59:26;98539.88;;;8.58;100.00
59106;BME280;44891;50.204;8.132;2023-02-19T06:03:29;98557.63;;;8.56;100.00
59106;BME280;44891;50.204;8.132;2023-02-19T06:07:31;98559.72;;;8.48;100.00
59106;BME280;44891;50.204;8.132;2023-02-19T06:11:33;98572.00;;;8.47;100.00
59106;BME280;44891;50.204;8.132;2023-02-19T06:15:36;98579.25;;;8.45;100.00
59106;BME280;44891;50.204;8.132;2023-02-19T06:19:39;98575.72;;;8.39;100.00
59106;BME280;44891;50.204;8.132;2023-02-19T06:23:41;98587.28;;;8.50;100.00
59106;BME280;44891;50.204;8.132;2023-02-19T06:27:43;98580.81;;;8.53;100.00
59106;BME280;44891;50.204;8.132;2023-02-19T06:31:45;98586.06;;;8.53;100.00
59106;BME280;44891;50.204;8.132;2023-02-19T06:35:48;98592.91;;;8.54;100.00
59106;BME280;44891;50.204;8.132;2023-02-19T06:39:50;98598.19;;;8.47;100.00
59106;BME280;44891;50.204;8.132;2023-02-19T06:43:51;98606.19;;;8.52;100.00
59106;BME280;44891;50.204;8.132;2023-02-19T06:47:53;98614.25;;;8.51;100.00
59106;BME280;44891;50.204;8.132;2023-02-19T06:51:57;98624.09;;;8.55;100.00
59106;BME280;44891;50.204;8.132;2023-02-19T06:55:59;98625.69;;;8.56;100.00
59106;BME280;44891;50.204;8.132;2023-02-19T07:00:02;98629.53;;;8.54;100.00
59106;BME280;44891;50.204;8.132;2023-02-19T07:04:04;98644.00;;;8.56;100.00
59106;BME280;44891;50.204;8.132;2023-02-19T07:08:08;98636.38;;;8.55;100.00
59106;BME280;44891;50.204;8.132;2023-02-19T07:12:10;98655.28;;;8.57;100.00
59106;BME280;44891;50.204;8.132;2023-02-19T07:16:12;98659.31;;;8.59;99.89
59106;BME280;44891;50.204;8.132;2023-02-19T07:20:14;98651.22;;;8.61;98.29
59106;BME280;44891;50.204;8.132;2023-02-19T07:24:17;98658.88;;;8.62;96.99
59106;BME280;44891;50.204;8.132;2023-02-19T07:28:21;98648.97;;;8.64;96.67
59106;BME280;44891;50.204;8.132;2023-02-19T07:32:22;98666.44;;;8.70;96.79
59106;BME280;44891;50.204;8.132;2023-02-19T07:36:24;98665.06;;;8.68;97.09
59106;BME280;44891;50.204;8.132;2023-02-19T07:40:27;98678.53;;;8.71;97.68
59106;BME280;44891;50.204;8.132;2023-02-19T07:44:29;98698.09;;;8.69;99.18
59106;BME280;44891;50.204;8.132;2023-02-19T07:48:31;98692.09;;;8.62;97.50
59106;BME280;44891;50.204;8.132;2023-02-19T07:52:34;98695.56;;;8.56;99.40
59106;BME280;44891;50.204;8.132;2023-02-19T07:56:37;98684.69;;;8.59;98.90
59106;BME280;44891;50.204;8.132;2023-02-19T08:00:39;98701.56;;;8.63;97.77
59106;BME280;44891;50.204;8.132;2023-02-19T08:04:41;98696.66;;;8.73;97.34
59106;BME280;44891;50.204;8.132;2023-02-19T08:08:45;98712.72;;;8.77;96.78
59106;BME280;44891;50.204;8.132;2023-02-19T08:12:54;98727.00;;;8.81;97.11
59106;BME280;44891;50.204;8.132;2023-02-19T08:17:13;98725.19;;;8.81;97.13
59106;BME280;44891;50.204;8.132;2023-02-19T08:21:15;98735.38;;;8.89;96.69
59106;BME280;44891;50.204;8.132;2023-02-19T08:25:20;98748.06;;;8.92;95.84
59106;BME280;44891;50.204;8.132;2023-02-19T08:29:23;98748.88;;;8.93;96.27
59106;BME280;44891;50.204;8.132;2023-02-19T08:33:25;98757.31;;;8.95;96.77
59106;BME280;44891;50.204;8.132;2023-02-19T08:37:27;98760.16;;;8.93;95.79
59106;BME280;44891;50.204;8.132;2023-02-19T08:41:28;98765.00;;;8.90;96.61
59106;BME280;44891;50.204;8.132;2023-02-19T08:45:32;98770.41;;;8.95;95.38
59106;BME280;44891;50.204;8.132;2023-02-19T08:49:33;98776.97;;;9.04;94.95
59106;BME280;44891;50.204;8.132;2023-02-19T08:53:36;98786.50;;;8.98;95.22
59106;BME280;44891;50.204;8.132;2023-02-19T08:57:38;98792.97;;;8.96;95.33
59106;BME280;44891;50.204;8.132;2023-02-19T09:01:41;98796.28;;;8.85;97.32
59106;BME280;44891;50.204;8.132;2023-02-19T09:05:43;98795.84;;;8.88;95.89
59106;BME280;44891;50.204;8.132;2023-02-19T09:09:46;98804.16;;;8.85;96.08
59106;BME280;44891;50.204;8.132;2023-02-19T09:13:48;98813.44;;;8.81;97.88
59106;BME280;44891;50.204;8.132;2023-02-19T09:17:51;98821.53;;;8.73;100.00
59106;BME280;44891;50.204;8.132;2023-02-19T09:21:53;98815.72;;;8.64;100.00
59106;BME280;44891;50.204;8.132;2023-02-19T09:25:56;98819.59;;;8.61;100.00
59106;BME280;44891;50.204;8.132;2023-02-19T09:29:59;98823.41;;;8.65;100.00
59106;BME280;44891;50.204;8.132;2023-02-19T09:34:02;98819.59;;;8.61;100.00
59106;BME280;44891;50.204;8.132;2023-02-19T09:38:06;98819.00;;;8.59;100.00
59106;BME280;44891;50.204;8.132;2023-02-19T09:42:11;98820.00;;;8.58;100.00
59106;BME280;44891;50.204;8.132;2023-02-19T09:46:21;98824.06;;;8.54;100.00
59106;BME280;44891;50.204;8.132;2023-02-19T09:50:26;98829.88;;;8.56;100.00
59106;BME280;44891;50.204;8.132;2023-02-19T09:54:32;98834.69;;;8.66;100.00
59106;BME280;44891;50.204;8.132;2023-02-19T09:58:35;98855.63;;;8.66;100.00
59106;BME280;44891;50.204;8.132;2023-02-19T10:02:39;98853.63;;;8.61;100.00
59106;BME280;44891;50.204;8.132;2023-02-19T10:06:42;98866.69;;;8.68;100.00
59106;BME280;44891;50.204;8.132;2023-02-19T10:10:44;98865.63;;;8.76;100.00
59106;BME280;44891;50.204;8.132;2023-02-19T10:14:47;98868.53;;;8.99;100.00
59106;BME280;44891;50.204;8.132;2023-02-19T10:18:50;98866.66;;;9.06;100.00
59106;BME280;44891;50.204;8.132;2023-02-19T10:22:56;98878.16;;;9.05;100.00
59106;BME280;44891;50.204;8.132;2023-02-19T10:26:59;98874.84;;;9.16;100.00
59106;BME280;44891;50.204;8.132;2023-02-19T10:31:02;98884.75;;;9.39;100.00
59106;BME280;44891;50.204;8.132;2023-02-19T10:35:08;98890.59;;;9.66;99.01
59106;BME280;44891;50.204;8.132;2023-02-19T10:39:22;98908.59;;;10.06;96.48
59106;BME280;44891;50.204;8.132;2023-02-19T10:43:29;98905.66;;;10.69;94.69
59106;BME280;44891;50.204;8.132;2023-02-19T10:47:33;98889.34;;;11.74;84.85
59106;BME280;44891;50.204;8.132;2023-02-19T10:51:37;98905.09;;;10.67;87.62
59106;BME280;44891;50.204;8.132;2023-02-19T10:55:41;98923.69;;;10.11;89.34
59106;BME280;44891;50.204;8.132;2023-02-19T10:59:47;98914.31;;;9.78;94.81
59106;BME280;44891;50.204;8.132;2023-02-19T11:03:50;98918.91;;;9.58;94.39
59106;BME280;44891;50.204;8.132;2023-02-19T11:07:53;98928.44;;;9.52;94.64
59106;BME280;44891;50.204;8.132;2023-02-19T11:11:57;98922.22;;;9.46;95.82
59106;BME280;44891;50.204;8.132;2023-02-19T11:15:59;98915.25;;;9.34;96.30
59106;BME280;44891;50.204;8.132;2023-02-19T11:20:03;98935.88;;;9.23;98.38
59106;BME280;44891;50.204;8.132;2023-02-19T11:24:12;98950.28;;;9.08;99.32
59106;BME280;44891;50.204;8.132;2023-02-19T11:28:23;98931.06;;;9.20;99.38
59106;BME280;44891;50.204;8.132;2023-02-19T11:32:28;98928.69;;;9.44;96.68
59106;BME280;44891;50.204;8.132;2023-02-19T11:36:31;98949.19;;;9.53;95.21
59106;BME280;44891;50.204;8.132;2023-02-19T11:40:36;98948.00;;;9.49;95.12
59106;BME280;44891;50.204;8.132;2023-02-19T11:44:44;98946.88;;;9.39;95.81
59106;BME280;44891;50.204;8.132;2023-02-19T11:48:51;98956.09;;;9.48;92.06
59106;BME280;44891;50.204;8.132;2023-02-19T11:53:00;98954.53;;;9.40;93.15
59106;BME280;44891;50.204;8.132;2023-02-19T11:57:07;98965.47;;;9.31;94.25
59106;BME280;44891;50.204;8.132;2023-02-19T12:01:13;98972.19;;;9.20;96.22
59106;BME280;44891;50.204;8.132;2023-02-19T12:05:28;98963.75;;;9.18;99.54
59106;BME280;44891;50.204;8.132;2023-02-19T12:09:41;98964.84;;;9.35;98.98
59106;BME280;44891;50.204;8.132;2023-02-19T12:18:14;98957.78;;;9.36;100.00
59106;BME280;44891;50.204;8.132;2023-02-19T12:22:27;98954.56;;;9.34;99.55
59106;BME280;44891;50.204;8.132;2023-02-19T12:26:31;98957.19;;;9.34;100.00
59106;BME280;44891;50.204;8.132;2023-02-19T12:30:43;98962.25;;;9.29;100.00
59106;BME280;44891;50.204;8.132;2023-02-19T12:39:18;98953.94;;;9.38;100.00
59106;BME280;44891;50.204;8.132;2023-02-19T12:43:25;98943.50;;;9.32;100.00
59106;BME280;44891;50.204;8.132;2023-02-19T12:47:27;98944.31;;;9.32;100.00
59106;BME280;44891;50.204;8.132;2023-02-19T12:51:34;98945.50;;;9.30;100.00
59106;BME280;44891;50.204;8.132;2023-02-19T12:55:39;98932.81;;;9.33;100.00
59106;BME280;44891;50.204;8.132;2023-02-19T12:59:43;98936.00;;;9.35;100.00
59106;BME280;44891;50.204;8.132;2023-02-19T13:03:47;98944.84;;;9.41;100.00
59106;BME280;44891;50.204;8.132;2023-02-19T13:07:52;98953.16;;;9.38;98.63
59106;BME280;44891;50.204;8.132;2023-02-19T13:11:58;98946.94;;;9.32;97.67
59106;BME280;44891;50.204;8.132;2023-02-19T13:16:05;98951.00;;;9.21;99.58
59106;BME280;44891;50.204;8.132;2023-02-19T13:20:12;98961.53;;;9.15;100.00
59106;BME280;44891;50.204;8.132;2023-02-19T13:24:16;98956.72;;;9.12;100.00
59106;BME280;44891;50.204;8.132;2023-02-19T13:28:25;98961.78;;;9.07;100.00
59106;BME280;44891;50.204;8.132;2023-02-19T13:32:37;98964.81;;;9.04;100.00
59106;BME280;44891;50.204;8.132;2023-02-19T13:36:43;98981.38;;;8.97;100.00
59106;BME280;44891;50.204;8.132;2023-02-19T13:40:51;98959.72;;;8.70;100.00
59106;BME280;44891;50.204;8.132;2023-02-19T13:44:55;98989.25;;;8.91;100.00
59106;BME280;44891;50.204;8.132;2023-02-19T13:53:54;98979.06;;;9.14;100.00
59106;BME280;44891;50.204;8.132;2023-02-19T14:06:44;98996.28;;;10.42;91.99
59106;BME280;44891;50.204;8.132;2023-02-19T14:11:05;98994.84;;;10.82;88.33
59106;BME280;44891;50.204;8.132;2023-02-19T14:19:43;99002.53;;;11.14;85.98
59106;BME280;44891;50.204;8.132;2023-02-19T14:23:51;98989.06;;;11.52;84.45
59106;BME280;44891;50.204;8.132;2023-02-19T14:27:53;98985.53;;;12.35;80.36
59106;BME280;44891;50.204;8.132;2023-02-19T14:31:58;98987.06;;;14.02;73.71
59106;BME280;44891;50.204;8.132;2023-02-19T14:36:02;98978.53;;;17.28;58.33
59106;BME280;44891;50.204;8.132;2023-02-19T14:40:08;98986.09;;;14.08;68.85
59106;BME280;44891;50.204;8.132;2023-02-19T14:44:15;99005.84;;;13.55;73.11
59106;BME280;44891;50.204;8.132;2023-02-19T14:48:19;99004.88;;;14.12;70.59
59106;BME280;44891;50.204;8.132;2023-02-19T14:52:22;99006.84;;;12.22;76.46
59106;BME280;44891;50.204;8.132;2023-02-19T14:56:26;99013.16;;;11.37;82.96
59106;BME280;44891;50.204;8.132;2023-02-19T15:00:30;99012.06;;;10.78;85.60
59106;BME280;44891;50.204;8.132;2023-02-19T15:04:34;99015.25;;;10.25;89.73
59106;BME280;44891;50.204;8.132;2023-02-19T15:08:38;99024.63;;;9.83;89.10
59106;BME280;44891;50.204;8.132;2023-02-19T15:12:45;99046.75;;;9.62;90.11
59106;BME280;44891;50.204;8.132;2023-02-19T15:16:47;99051.50;;;9.47;92.53
59106;BME280;44891;50.204;8.132;2023-02-19T15:20:51;99040.50;;;9.32;94.22
59106;BME280;44891;50.204;8.132;2023-02-19T15:24:59;99045.19;;;9.10;95.83
59106;BME280;44891;50.204;8.132;2023-02-19T15:29:08;99063.78;;;9.02;96.93
59106;BME280;44891;50.204;8.132;2023-02-19T15:33:12;99067.78;;;9.04;97.83
59106;BME280;44891;50.204;8.132;2023-02-19T15:37:16;99024.81;;;8.67;97.60
59106;BME280;44891;50.204;8.132;2023-02-19T15:41:18;99066.63;;;8.93;97.84
59106;BME280;44891;50.204;8.132;2023-02-19T15:45:22;99043.28;;;8.85;98.68
59106;BME280;44891;50.204;8.132;2023-02-19T15:49:25;99049.16;;;8.81;95.83
59106;BME280;44891;50.204;8.132;2023-02-19T15:53:30;99042.28;;;8.80;96.45
59106;BME280;44891;50.204;8.132;2023-02-19T15:57:34;99030.22;;;8.79;97.38
59106;BME280;44891;50.204;8.132;2023-02-19T16:01:38;99021.72;;;8.83;96.88
59106;BME280;44891;50.204;8.132;2023-02-19T16:05:41;99013.69;;;8.85;95.44
59106;BME280;44891;50.204;8.132;2023-02-19T16:09:42;99015.69;;;8.83;96.57
59106;BME280;44891;50.204;8.132;2023-02-19T16:13:44;99005.22;;;8.76;98.42
59106;BME280;44891;50.204;8.132;2023-02-19T16:17:47;99007.44;;;8.79;98.33
59106;BME280;44891;50.204;8.132;2023-02-19T16:21:50;99008.63;;;8.83;98.38
59106;BME280;44891;50.204;8.132;2023-02-19T16:25:56;99005.44;;;8.75;98.05
59106;BME280;44891;50.204;8.132;2023-02-19T16:29:59;99005.25;;;8.69;98.54
59106;BME280;44891;50.204;8.132;2023-02-19T16:34:15;99014.13;;;8.62;100.00
59106;BME280;44891;50.204;8.132;2023-02-19T16:38:18;99026.00;;;8.58;100.00
59106;BME280;44891;50.204;8.132;2023-02-19T16:42:20;99036.72;;;8.50;100.00
59106;BME280;44891;50.204;8.132;2023-02-19T16:46:22;99033.50;;;8.48;100.00
59106;BME280;44891;50.204;8.132;2023-02-19T16:50:25;99028.28;;;8.48;100.00
59106;BME280;44891;50.204;8.132;2023-02-19T16:54:27;99039.13;;;8.44;100.00
59106;BME280;44891;50.204;8.132;2023-02-19T16:58:29;99053.44;;;8.49;100.00
59106;BME280;44891;50.204;8.132;2023-02-19T17:02:31;99055.25;;;8.48;100.00
59106;BME280;44891;50.204;8.132;2023-02-19T17:06:34;99068.94;;;8.37;100.00
59106;BME280;44891;50.204;8.132;2023-02-19T17:10:37;99081.00;;;8.44;100.00
59106;BME280;44891;50.204;8.132;2023-02-19T17:14:39;99082.03;;;8.43;100.00
59106;BME280;44891;50.204;8.132;2023-02-19T17:18:40;99089.50;;;8.40;100.00
59106;BME280;44891;50.204;8.132;2023-02-19T17:22:44;99109.97;;;8.30;100.00
59106;BME280;44891;50.204;8.132;2023-02-19T17:26:45;99101.34;;;8.29;100.00
59106;BME280;44891;50.204;8.132;2023-02-19T17:30:47;99106.19;;;8.32;100.00
59106;BME280;44891;50.204;8.132;2023-02-19T17:34:49;99098.13;;;8.34;100.00
59106;BME280;44891;50.204;8.132;2023-02-19T17:38:53;99111.19;;;8.34;100.00
59106;BME280;44891;50.204;8.132;2023-02-19T17:42:55;99118.63;;;8.24;100.00
59106;BME280;44891;50.204;8.132;2023-02-19T17:46:57;99116.44;;;8.21;100.00
59106;BME280;44891;50.204;8.132;2023-02-19T17:50:59;99119.66;;;8.23;100.00
59106;BME280;44891;50.204;8.132;2023-02-19T17:55:02;99130.91;;;8.30;100.00
59106;BME280;44891;50.204;8.132;2023-02-19T17:59:03;99145.81;;;8.29;100.00
59106;BME280;44891;50.204;8.132;2023-02-19T18:03:05;99154.28;;;8.31;100.00
59106;BME280;44891;50.204;8.132;2023-02-19T18:07:08;99148.66;;;8.28;100.00
59106;BME280;44891;50.204;8.132;2023-02-19T18:11:11;99158.69;;;8.31;100.00
59106;BME280;44891;50.204;8.132;2023-02-19T18:15:14;99157.66;;;8.18;100.00
59106;BME280;44891;50.204;8.132;2023-02-19T18:19:16;99167.31;;;8.11;100.00
59106;BME280;44891;50.204;8.132;2023-02-19T18:23:18;99161.50;;;8.09;100.00
59106;BME280;44891;50.204;8.132;2023-02-19T18:27:22;99157.63;;;7.92;100.00
59106;BME280;44891;50.204;8.132;2023-02-19T18:31:24;99162.25;;;7.97;100.00
59106;BME280;44891;50.204;8.132;2023-02-19T18:35:26;99157.44;;;7.94;100.00
59106;BME280;44891;50.204;8.132;2023-02-19T18:39:27;99163.06;;;7.97;100.00
59106;BME280;44891;50.204;8.132;2023-02-19T18:43:31;99167.91;;;8.00;100.00
59106;BME280;44891;50.204;8.132;2023-02-19T18:47:32;99084.47;;;7.44;100.00
59106;BME280;44891;50.204;8.132;2023-02-19T18:51:34;99171.94;;;8.03;100.00
59106;BME280;44891;50.204;8.132;2023-02-19T18:55:36;99165.31;;;8.00;100.00
59106;BME280;44891;50.204;8.132;2023-02-19T18:59:39;99161.88;;;8.00;100.00
59106;BME280;44891;50.204;8.132;2023-02-19T19:03:41;99158.25;;;7.94;100.00
59106;BME280;44891;50.204;8.132;2023-02-19T19:07:43;99156.66;;;8.00;100.00
59106;BME280;44891;50.204;8.132;2023-02-19T19:11:45;99152.41;;;7.99;100.00
59106;BME280;44891;50.204;8.132;2023-02-19T19:15:49;99167.69;;;7.95;100.00
59106;BME280;44891;50.204;8.132;2023-02-19T19:19:51;99161.88;;;7.93;100.00
59106;BME280;44891;50.204;8.132;2023-02-19T19:23:53;99161.47;;;7.96;100.00
59106;BME280;44891;50.204;8.132;2023-02-19T19:27:55;99162.03;;;7.85;100.00
59106;BME280;44891;50.204;8.132;2023-02-19T19:31:58;99172.66;;;7.77;100.00
59106;BME280;44891;50.204;8.132;2023-02-19T19:36:00;99178.50;;;7.79;100.00
59106;BME280;44891;50.204;8.132;2023-02-19T19:40:02;99165.84;;;7.82;100.00
59106;BME280;44891;50.204;8.132;2023-02-19T19:44:05;99161.44;;;7.83;100.00
59106;BME280;44891;50.204;8.132;2023-02-19T19:48:08;99169.06;;;7.84;100.00
59106;BME280;44891;50.204;8.132;2023-02-19T19:52:10;99171.88;;;7.83;100.00
59106;BME280;44891;50.204;8.132;2023-02-19T19:56:12;99183.97;;;7.84;100.00
59106;BME280;44891;50.204;8.132;2023-02-19T20:00:15;99182.16;;;7.84;100.00
59106;BME280;44891;50.204;8.132;2023-02-19T20:04:19;99177.91;;;7.77;100.00
59106;BME280;44891;50.204;8.132;2023-02-19T20:08:21;99188.59;;;7.82;100.00
59106;BME280;44891;50.204;8.132;2023-02-19T20:12:23;99191.78;;;7.77;100.00
59106;BME280;44891;50.204;8.132;2023-02-19T20:16:25;99193.38;;;7.72;100.00
59106;BME280;44891;50.204;8.132;2023-02-19T20:20:28;99188.56;;;7.75;100.00
59106;BME280;44891;50.204;8.132;2023-02-19T20:24:30;99195.97;;;7.72;100.00
59106;BME280;44891;50.204;8.132;2023-02-19T20:28:32;99206.25;;;7.73;100.00
59106;BME280;44891;50.204;8.132;2023-02-19T20:32:34;99227.78;;;7.75;100.00
59106;BME280;44891;50.204;8.132;2023-02-19T20:36:41;99217.69;;;7.72;100.00
59106;BME280;44891;50.204;8.132;2023-02-19T20:40:43;99218.94;;;7.76;100.00
59106;BME280;44891;50.204;8.132;2023-02-19T20:44:45;99217.31;;;7.75;100.00
59106;BME280;44891;50.204;8.132;2023-02-19T20:48:47;99202.25;;;7.77;100.00
59106;BME280;44891;50.204;8.132;2023-02-19T20:52:50;99205.63;;;7.71;100.00
59106;BME280;44891;50.204;8.132;2023-02-19T20:56:53;99206.66;;;7.77;100.00
59106;BME280;44891;50.204;8.132;2023-02-19T21:00:56;99218.34;;;7.81;100.00
59106;BME280;44891;50.204;8.132;2023-02-19T21:04:58;99218.97;;;7.83;100.00
59106;BME280;44891;50.204;8.132;2023-02-19T21:09:01;99223.97;;;7.78;100.00
59106;BME280;44891;50.204;8.132;2023-02-19T21:13:03;99226.16;;;7.68;100.00
59106;BME280;44891;50.204;8.132;2023-02-19T21:17:05;99237.00;;;7.71;100.00
59106;BME280;44891;50.204;8.132;2023-02-19T21:21:07;99241.50;;;7.84;100.00
59106;BME280;44891;50.204;8.132;2023-02-19T21:25:10;99241.13;;;7.87;100.00
59106;BME280;44891;50.204;8.132;2023-02-19T21:29:13;99260.03;;;7.89;100.00
59106;BME280;44891;50.204;8.132;2023-02-19T21:33:15;99267.59;;;7.77;100.00
59106;BME280;44891;50.204;8.132;2023-02-19T21:37:17;99264.31;;;7.62;98.13
59106;BME280;44891;50.204;8.132;2023-02-19T21:41:20;99263.47;;;7.55;98.52
59106;BME280;44891;50.204;8.132;2023-02-19T21:45:22;99255.16;;;7.45;98.98
59106;BME280;44891;50.204;8.132;2023-02-19T21:49:24;99263.91;;;7.30;100.00
59106;BME280;44891;50.204;8.132;2023-02-19T21:53:26;99260.50;;;7.30;99.71
59106;BME280;44891;50.204;8.132;2023-02-19T21:57:30;99259.75;;;7.36;98.89
59106;BME280;44891;50.204;8.132;2023-02-19T22:01:33;99266.94;;;7.27;99.93
59106;BME280;44891;50.204;8.132;2023-02-19T22:05:38;99282.41;;;7.29;99.72
59106;BME280;44891;50.204;8.132;2023-02-19T22:09:39;99276.44;;;7.35;99.20
59106;BME280;44891;50.204;8.132;2023-02-19T22:13:43;99274.19;;;7.32;98.66